Pau d'Arco, Brazil
Current Conditions -  °F | °C
As of 3:00 AM on Friday 31 Oct 2014 (Local Time) from SBMA Reporting Station
Thunderstorm Thunderstorm  
Wind Chill: 73°   Ceiling: 7000
Heat Index: 73°   Visibility: 3mi
Dew Point: 73°   Wind: 12mph
Humidity: 100%   Direction: 150°SSE
Pressure: 29.83"   Gusts: NA
Location:  7.54°S, 49.37°W
Report Text: SBMA 310600Z 15010KT 5000 -TSRA BR SCT006 FEW025CB OVC070 23/23 Q1010
Loading
Personal Weather Stations






























Interactive Weather Map
Tropical Storm Tracking
New forecast layout! Learn more

10-Day Weather Forecast

Advertisements
Track Severe Weather on mobile